»·PEaware :: DAL2047 KTPA-KATL

DAL2047 :: KTPA-KATL

FLIGHT INFORMATION

Flight Status: Arrived
Operator:
Delta Air Lines
More flights by this operator :: More flights under this callsign
Pilot: Andre C. (24931)
Aircraft: BOEING 737-900
(B739)
More flights by this aircraft type
Origin: KTPA Tampa Intl
United States
Destination: KATL Hartsfield-Jackson Atlanta
United States
More flights between these airports :: More routes between these airports
Route: ENDED8 LACEN AMORY Q110 DAWWN BEORN GNDLF2
File this flight plan on PilotEdge
Remarks: RMK / SIMBRIEF
Altitude:
(Current/Filed)
34,000ft
Speed:
(Current/Filed)
452kts
Departed: 09-Jun-19 03:57 PM
Arrived: 09-Jun-19 05:04 PM
Distance/Time
Traveled:
354nm/1:07
Distance/Time
To Go:
Arrived

Flight Plot

Page will automatically refresh every two minutes.

Flight plan parsing failed; only flown route is shown


Map Options




Map Legend


Flown Route
Filed Route
Departure Airport
Arrival Airport
Navaid (VOR, NDB)
Fix

Horizontal Profiles

Position Reports

Time Latitude Longitude Heading Altitude Ground
Speed
09-Jun-19 15:19 27.981106 -82.538068 205 21ft 0kts
09-Jun-19 15:21 27.981106 -82.538068 205 21ft 0kts
09-Jun-19 15:22 27.981106 -82.538068 205 21ft 0kts
09-Jun-19 15:22 27.981106 -82.538068 205 21ft 0kts
09-Jun-19 15:23 27.981106 -82.538068 205 21ft 0kts
09-Jun-19 15:25 27.981106 -82.538068 205 21ft 0kts
09-Jun-19 15:25 27.981106 -82.538068 205 21ft 0kts
09-Jun-19 15:26 27.981106 -82.538068 205 21ft 0kts
09-Jun-19 15:27 27.981106 -82.538068 205 21ft 0kts
09-Jun-19 15:28 27.981106 -82.538068 205 21ft 0kts
09-Jun-19 15:29 27.981106 -82.538068 205 21ft 0kts
09-Jun-19 15:30 27.981106 -82.538068 205 21ft 0kts
09-Jun-19 15:31 27.981106 -82.538068 205 21ft 0kts
09-Jun-19 15:32 27.981106 -82.538068 205 21ft 0kts
09-Jun-19 15:33 27.981106 -82.538068 205 21ft 0kts
09-Jun-19 15:34 27.981106 -82.538068 205 21ft 0kts
09-Jun-19 15:35 27.981106 -82.538068 205 21ft 0kts
09-Jun-19 15:36 27.981106 -82.538068 205 21ft 0kts
09-Jun-19 15:37 27.981106 -82.538068 205 21ft 0kts
09-Jun-19 15:38 27.981106 -82.538068 205 21ft 0kts
09-Jun-19 15:39 27.981106 -82.538068 205 21ft 0kts
09-Jun-19 15:40 27.981106 -82.538068 205 21ft 0kts
09-Jun-19 15:41 27.981106 -82.538068 205 21ft 0kts
09-Jun-19 15:42 27.981106 -82.538068 205 21ft 0kts
09-Jun-19 15:43 27.981106 -82.538068 205 21ft 0kts
09-Jun-19 15:44 27.981106 -82.538068 205 21ft 0kts
09-Jun-19 15:45 27.981106 -82.538068 205 21ft 0kts
09-Jun-19 15:46 27.981107 -82.538068 205 21ft 0kts
09-Jun-19 15:47 27.981425 -82.537946 198 21ft 2kts
09-Jun-19 15:48 27.981988 -82.537737 198 21ft 2kts
09-Jun-19 15:49 27.982467 -82.537517 225 21ft 0kts
09-Jun-19 15:50 27.982478 -82.537505 225 21ft 0kts
09-Jun-19 15:51 27.982465 -82.537520 225 21ft 0kts
09-Jun-19 15:52 27.982359 -82.538562 267 21ft 8kts
09-Jun-19 15:53 27.984918 -82.540374 359 20ft 18kts
09-Jun-19 15:54 27.992315 -82.540161 358 21ft 28kts
09-Jun-19 15:55 27.992060 -82.541355 180 18ft 0kts
09-Jun-19 15:56 27.965600 -82.542674 186 381ft 161kts
09-Jun-19 15:57 27.947375 -82.577029 310 1855ft 226kts
09-Jun-19 15:58 28.015374 -82.608482 355 4560ft 283kts
09-Jun-19 15:59 28.093363 -82.611873 332 7811ft 289kts
09-Jun-19 16:00 28.166871 -82.652193 331 10453ft 316kts
09-Jun-19 16:01 28.249690 -82.696877 331 13056ft 336kts
09-Jun-19 16:02 28.333761 -82.742290 331 15732ft 342kts
09-Jun-19 16:03 28.422441 -82.785292 346 18095ft 355kts
09-Jun-19 16:04 28.523610 -82.802741 350 18492ft 376kts
09-Jun-19 16:05 28.627256 -82.820150 349 19067ft 377kts
09-Jun-19 16:06 28.731301 -82.838832 349 19618ft 380kts
09-Jun-19 16:07 28.836375 -82.857787 349 20181ft 383kts
09-Jun-19 16:08 28.940528 -82.876629 349 21205ft 369kts
09-Jun-19 16:09 29.042620 -82.895160 349 21579ft 374kts
09-Jun-19 16:10 29.145300 -82.913849 348 21969ft 378kts
09-Jun-19 16:11 29.246269 -82.945062 326 22333ft 375kts
09-Jun-19 16:12 29.334591 -83.010395 324 22773ft 379kts
09-Jun-19 16:13 29.423985 -83.075806 324 23260ft 383kts
09-Jun-19 16:14 29.514497 -83.142195 324 23784ft 386kts
09-Jun-19 16:15 29.605420 -83.209050 324 24319ft 390kts
09-Jun-19 16:16 29.697501 -83.276917 324 24870ft 394kts
09-Jun-19 16:17 29.790440 -83.345576 324 25433ft 398kts
09-Jun-19 16:18 29.883923 -83.414798 324 26005ft 402kts
09-Jun-19 16:27 30.746944 -84.057105 324 30961ft 431kts
09-Jun-19 16:28 30.848410 -84.133257 324 31574ft 437kts
09-Jun-19 16:29 30.951429 -84.210785 324 32205ft 443kts
09-Jun-19 16:30 31.054690 -84.288683 324 32823ft 441kts
09-Jun-19 16:31 31.156097 -84.365406 324 33411ft 447kts
09-Jun-19 16:32 31.260717 -84.444770 324 33973ft 452kts
09-Jun-19 16:33 31.364196 -84.523445 324 33906ft 441kts
09-Jun-19 16:34 31.468451 -84.602907 325 33867ft 459kts
09-Jun-19 16:35 31.588872 -84.667609 335 33845ft 487kts
09-Jun-19 16:36 31.713128 -84.729233 334 33798ft 483kts
09-Jun-19 16:37 31.836674 -84.790904 334 33758ft 483kts
09-Jun-19 16:38 31.960725 -84.852296 335 33725ft 483kts
09-Jun-19 16:39 32.081918 -84.910035 335 33646ft 442kts
09-Jun-19 16:40 32.195043 -84.964123 335 32441ft 452kts
09-Jun-19 16:41 32.313957 -85.021158 336 28819ft 463kts
09-Jun-19 16:42 32.431139 -85.077490 336 26219ft 447kts
09-Jun-19 16:43 32.543893 -85.131888 336 23817ft 428kts
09-Jun-19 16:44 32.651823 -85.184147 336 21524ft 410kts
09-Jun-19 16:45 32.755024 -85.233937 339 19341ft 392kts
09-Jun-19 16:46 32.861807 -85.240751 4 17174ft 382kts
09-Jun-19 16:47 32.965310 -85.228072 7 15214ft 366kts
09-Jun-19 16:48 33.052521 -85.171415 46 13185ft 358kts
09-Jun-19 16:49 33.111671 -85.079324 54 11491ft 334kts
09-Jun-19 16:50 33.159457 -85.001336 54 10096ft 305kts
09-Jun-19 16:51 33.208585 -84.921723 54 8814ft 292kts
09-Jun-19 16:52 33.261426 -84.853196 31 8003ft 266kts
09-Jun-19 16:53 33.333336 -84.825369 356 7985ft 281kts
09-Jun-19 16:54 33.411211 -84.830022 359 7870ft 275kts
09-Jun-19 16:55 33.482647 -84.817145 49 6886ft 258kts
09-Jun-19 16:56 33.530993 -84.753538 40 6087ft 264kts
09-Jun-19 16:57 33.587681 -84.696755 40 5249ft 262kts
09-Jun-19 16:58 33.625445 -84.633621 98 4359ft 219kts
09-Jun-19 16:59 33.636108 -84.573811 64 3271ft 176kts
09-Jun-19 17:00 33.634407 -84.520697 91 2652ft 158kts
09-Jun-19 17:01 33.634625 -84.471767 90 1513ft 153kts
09-Jun-19 17:02 33.634710 -84.429157 90 1006ft 48kts
09-Jun-19 17:03 33.636174 -84.424176 8 995ft 6kts
09-Jun-19 17:04 33.636556 -84.425717 270 1000ft 16kts
09-Jun-19 17:05 33.636624 -84.433823 269 1011ft 23kts
09-Jun-19 17:06 33.636661 -84.440153 291 1018ft 13kts
09-Jun-19 17:07 33.637986 -84.439655 90 1017ft 0kts
09-Jun-19 17:08 33.637986 -84.439655 90 1017ft 0kts

Navigation Log

Ident Type
Flight plan parsing failed, navigation log unavailable